Terminal Aerodrome Forecast
Issued by NWS

Home | Current Version | Previous Version | Text Only | Print | Product List | Glossary On
Versions: 1 2 3 4 5 6 7 8 9 10 11 12 13 14 15 16 17 18 19 20 21 22
000
FTAK31 PAJN 041150
TAFAYA
TAF
PAYA 041150Z 0412/0512 08010KT P6SM SCT060 WS015/06030KT
     FM042000 06008KT P6SM SKC WS015/06025KT
      AMD LTD TO CLD VIS AND WIND 0501/0509=

USA.gov is the U.S. government's official web portal to all federal, state and local government web resources and services.